TimeCDT,TemperatureF,Dew PointF,Humidity,Sea Level PressureIn,VisibilityMPH,Wind Direction,Wind SpeedMPH,Gust SpeedMPH,PrecipitationIn,Events,Conditions,WindDirDegrees,DateUTC
12:15 AM,79.0,78.8,99,29.94,10.0,SSW,13.8,18.4,N/A,,Clear,210,2013-07-19 05:15:00
12:35 AM,78.8,78.8,100,29.94,10.0,SSW,12.7,-,N/A,,Clear,210,2013-07-19 05:35:00
12:55 AM,78.3,78.3,100,29.93,10.0,SSW,12.7,-,N/A,,Clear,210,2013-07-19 05:55:00
1:15 AM,78.1,78.1,100,29.93,10.0,SSW,13.8,-,N/A,,Clear,210,2013-07-19 06:15:00
1:35 AM,77.9,77.9,100,29.92,10.0,SSW,12.7,-,N/A,,Clear,210,2013-07-19 06:35:00
1:55 AM,77.2,77.2,100,29.92,10.0,SSW,12.7,-,N/A,,Clear,210,2013-07-19 06:55:00
2:15 AM,77.0,77.0,100,29.92,10.0,SSW,10.4,-,N/A,,Clear,210,2013-07-19 07:15:00
2:35 AM,76.8,76.8,100,29.91,10.0,SSW,12.7,-,N/A,,Clear,210,2013-07-19 07:35:00
2:55 AM,76.5,76.5,100,29.90,10.0,SSW,12.7,17.3,N/A,,Clear,210,2013-07-19 07:55:00
3:15 AM,76.6,76.6,100,29.90,10.0,SSW,13.8,-,N/A,,Clear,210,2013-07-19 08:15:00
3:35 AM,76.3,76.3,100,29.89,10.0,SSW,12.7,-,N/A,,Clear,210,2013-07-19 08:35:00
3:55 AM,75.9,75.9,100,29.89,10.0,SSW,12.7,-,N/A,,Clear,210,2013-07-19 08:55:00
4:15 AM,76.1,76.1,100,29.88,10.0,SSW,12.7,-,N/A,,Clear,210,2013-07-19 09:15:00
4:35 AM,75.7,75.7,100,29.87,10.0,SSW,12.7,-,N/A,,Clear,210,2013-07-19 09:35:00
4:55 AM,75.4,75.4,100,29.87,10.0,SSW,12.7,-,N/A,,Clear,210,2013-07-19 09:55:00
5:15 AM,75.2,75.2,100,29.87,10.0,SSW,12.7,-,N/A,,Scattered Clouds,210,2013-07-19 10:15:00
5:35 AM,75.4,75.4,100,29.87,10.0,SSW,12.7,-,N/A,,Scattered Clouds,210,2013-07-19 10:35:00
5:55 AM,75.4,75.2,99,29.87,10.0,SSW,13.8,18.4,N/A,,Clear,210,2013-07-19 10:55:00
6:15 AM,76.3,74.7,95,29.87,10.0,SSW,13.8,-,N/A,,Clear,210,2013-07-19 11:15:00
6:35 AM,77.0,73.2,88,29.88,10.0,SW,13.8,-,N/A,,Scattered Clouds,220,2013-07-19 11:35:00
6:55 AM,77.9,68.9,74,29.88,10.0,SW,16.1,-,N/A,,Scattered Clouds,220,2013-07-19 11:55:00
7:15 AM,79.2,68.4,69,29.88,10.0,SW,17.3,20.7,N/A,,Clear,220,2013-07-19 12:15:00
7:35 AM,80.6,68.2,66,29.88,10.0,SW,18.4,23.0,N/A,,Clear,220,2013-07-19 12:35:00
7:55 AM,81.0,68.4,65,29.88,10.0,SW,17.3,21.9,N/A,,Clear,220,2013-07-19 12:55:00
8:15 AM,81.7,68.2,63,29.89,10.0,WSW,15.0,20.7,N/A,,Mostly Cloudy,240,2013-07-19 13:15:00
8:35 AM,82.8,68.0,61,29.89,10.0,SW,18.4,23.0,N/A,,Scattered Clouds,230,2013-07-19 13:35:00
8:55 AM,83.5,67.8,59,29.88,10.0,WSW,19.6,24.2,N/A,,Clear,240,2013-07-19 13:55:00
9:15 AM,84.4,67.5,57,29.88,10.0,WSW,19.6,24.2,N/A,,Clear,240,2013-07-19 14:15:00
9:35 AM,85.3,67.3,55,29.87,10.0,WSW,18.4,24.2,N/A,,Clear,240,2013-07-19 14:35:00
9:55 AM,84.6,67.5,56,29.87,7.0,WSW,19.6,25.3,N/A,,Clear,240,2013-07-19 14:55:00
10:15 AM,84.9,67.3,55,29.86,10.0,SW,15.0,19.6,N/A,,Clear,230,2013-07-19 15:15:00
10:35 AM,86.7,68.9,55,29.86,10.0,SSW,16.1,21.9,N/A,,Clear,210,2013-07-19 15:35:00
10:55 AM,88.2,67.8,51,29.86,10.0,SW,21.9,28.8,N/A,,Clear,230,2013-07-19 15:55:00
11:15 AM,87.6,67.3,51,29.86,10.0,WSW,23.0,29.9,N/A,,Clear,240,2013-07-19 16:15:00
11:35 AM,86.2,67.1,53,29.86,10.0,WSW,19.6,29.9,N/A,,Clear,250,2013-07-19 16:35:00
11:55 AM,85.1,67.5,55,29.86,10.0,WSW,21.9,26.5,N/A,,Clear,240,2013-07-19 16:55:00
12:15 PM,85.3,68.0,56,29.85,10.0,SW,16.1,21.9,N/A,,Clear,230,2013-07-19 17:15:00
12:35 PM,86.0,69.3,57,29.84,10.0,WSW,15.0,19.6,N/A,,Clear,250,2013-07-19 17:35:00
12:55 PM,88.3,69.3,53,29.83,10.0,SW,19.6,25.3,N/A,,Clear,230,2013-07-19 17:55:00
1:15 PM,88.2,67.5,50,29.84,10.0,WSW,21.9,29.9,N/A,,Clear,240,2013-07-19 18:15:00
1:35 PM,85.6,68.9,57,29.84,10.0,WSW,15.0,25.3,N/A,Rain,Light Rain,240,2013-07-19 18:35:00
1:55 PM,84.7,70.5,62,29.83,10.0,WSW,15.0,-,N/A,,Light Drizzle,250,2013-07-19 18:55:00
2:15 PM,88.2,70.3,55,29.83,10.0,WSW,16.1,24.2,N/A,,Clear,240,2013-07-19 19:15:00
2:35 PM,89.2,68.0,49,29.83,10.0,WSW,26.5,31.1,N/A,,Clear,240,2013-07-19 19:35:00
2:55 PM,88.5,68.2,51,29.83,10.0,SW,23.0,28.8,N/A,,Clear,230,2013-07-19 19:55:00
3:15 PM,88.2,68.2,51,29.82,10.0,SW,21.9,28.8,N/A,,Clear,230,2013-07-19 20:15:00
3:35 PM,88.7,68.9,52,29.82,10.0,SW,20.7,28.8,N/A,,Scattered Clouds,230,2013-07-19 20:35:00
3:55 PM,90.5,69.1,49,29.81,10.0,SW,16.1,27.6,N/A,,Scattered Clouds,230,2013-07-19 20:55:00
4:15 PM,89.6,69.1,51,29.80,10.0,SW,20.7,27.6,N/A,,Scattered Clouds,230,2013-07-19 21:15:00
4:35 PM,89.4,67.5,48,29.81,10.0,WSW,19.6,32.2,N/A,,Scattered Clouds,240,2013-07-19 21:35:00
4:55 PM,89.6,68.0,49,29.80,10.0,WSW,19.6,26.5,N/A,,Scattered Clouds,240,2013-07-19 21:55:00
5:15 PM,89.4,67.1,48,29.80,10.0,WSW,20.7,27.6,N/A,,Mostly Cloudy,240,2013-07-19 22:15:00
5:35 PM,89.1,68.5,51,29.80,10.0,West,13.8,23.0,N/A,,Scattered Clouds,260,2013-07-19 22:35:00
5:55 PM,88.9,67.8,50,29.80,10.0,West,17.3,-,N/A,,Scattered Clouds,260,2013-07-19 22:55:00
6:15 PM,88.3,68.0,51,29.79,10.0,West,13.8,20.7,N/A,,Scattered Clouds,260,2013-07-19 23:15:00
6:35 PM,88.0,68.4,52,29.79,10.0,WSW,13.8,23.0,N/A,,Clear,250,2013-07-19 23:35:00
6:38 PM,87.8,69.8,55,29.79,10.0,WSW,16.1,23.0,N/A,,Clear,250,2013-07-19 23:38:00
6:55 PM,87.3,68.9,54,29.78,10.0,WSW,13.8,20.7,N/A,,Clear,250,2013-07-19 23:55:00
7:15 PM,86.5,67.6,53,29.79,10.0,West,15.0,19.6,N/A,Thunderstorm,Clear,260,2013-07-20 00:15:00
7:35 PM,86.0,68.2,55,29.79,10.0,WSW,11.5,-,N/A,,Scattered Clouds,250,2013-07-20 00:35:00
7:55 PM,85.3,68.7,57,29.80,10.0,West,12.7,17.3,N/A,,Mostly Cloudy,260,2013-07-20 00:55:00
8:15 PM,84.2,69.1,60,29.80,10.0,West,9.2,-,N/A,,Scattered Clouds,280,2013-07-20 01:15:00
8:35 PM,83.1,66.6,57,29.80,10.0,WNW,9.2,-,N/A,,Clear,290,2013-07-20 01:35:00
8:55 PM,81.3,66.4,60,29.81,10.0,WNW,6.9,-,N/A,,Clear,300,2013-07-20 01:55:00
9:15 PM,79.9,65.8,62,29.82,10.0,NW,8.1,-,N/A,,Clear,310,2013-07-20 02:15:00
9:35 PM,79.3,64.6,60,29.83,10.0,WNW,6.9,-,N/A,,Clear,290,2013-07-20 02:35:00
9:55 PM,78.4,64.4,62,29.84,10.0,West,6.9,-,N/A,,Clear,280,2013-07-20 02:55:00
10:15 PM,78.3,64.4,62,29.85,10.0,WNW,8.1,-,N/A,,Clear,300,2013-07-20 03:15:00
10:35 PM,76.8,63.5,63,29.86,10.0,WNW,8.1,-,N/A,,Clear,300,2013-07-20 03:35:00
10:55 PM,76.1,63.0,64,29.86,10.0,WNW,8.1,-,N/A,,Clear,300,2013-07-20 03:55:00
11:15 PM,75.7,62.6,64,29.86,10.0,NW,8.1,-,N/A,,Clear,310,2013-07-20 04:15:00
11:35 PM,75.2,62.6,65,29.86,10.0,NW,8.1,-,N/A,,Clear,310,2013-07-20 04:35:00
11:55 PM,74.3,62.6,67,29.87,10.0,WNW,8.1,-,N/A,,Clear,300,2013-07-20 04:55:00